Terminal Aerodrome Forecast
Issued by NWS

Home | Current Version | Previous Version | Text Only | Print | Product List | Glossary On
Versions: 1 2 3 4 5 6 7 8 9 10 11 12 13 14 15
502
FTUS43 KFGF 262340
TAFDVL
TAF
KDVL 262340Z 2700/2724 02011KT P6SM VCTS BKN070CB
     FM270300 05007KT P6SM BKN080
     FM271300 03007KT P6SM SCT250=

USA.gov is the U.S. government's official web portal to all federal, state and local government web resources and services.